sensor_id;sensor_type;location;lat;lon;timestamp;temperature;humidity
51337;DHT22;37421;51.176;17.196;2022-10-26T00:00:49;19.10;99.90
51337;DHT22;37421;51.176;17.196;2022-10-26T00:03:16;19.10;99.90
51337;DHT22;37421;51.176;17.196;2022-10-26T00:05:44;19.10;99.90
51337;DHT22;37421;51.176;17.196;2022-10-26T00:08:10;19.10;99.90
51337;DHT22;37421;51.176;17.196;2022-10-26T00:10:37;19.10;99.90
51337;DHT22;37421;51.176;17.196;2022-10-26T00:13:06;19.10;99.90
51337;DHT22;37421;51.176;17.196;2022-10-26T00:15:33;19.10;99.90
51337;DHT22;37421;51.176;17.196;2022-10-26T00:17:59;19.00;99.90
51337;DHT22;37421;51.176;17.196;2022-10-26T00:20:25;19.00;99.90
51337;DHT22;37421;51.176;17.196;2022-10-26T00:22:59;19.00;99.90
51337;DHT22;37421;51.176;17.196;2022-10-26T00:25:25;19.00;99.90
51337;DHT22;37421;51.176;17.196;2022-10-26T00:27:52;19.00;99.90
51337;DHT22;37421;51.176;17.196;2022-10-26T00:30:17;19.00;99.90
51337;DHT22;37421;51.176;17.196;2022-10-26T00:32:43;19.00;99.90
51337;DHT22;37421;51.176;17.196;2022-10-26T00:35:09;19.00;99.90
51337;DHT22;37421;51.176;17.196;2022-10-26T00:37:35;19.00;99.90
51337;DHT22;37421;51.176;17.196;2022-10-26T00:40:01;19.00;99.90
51337;DHT22;37421;51.176;17.196;2022-10-26T00:42:39;19.00;99.90
51337;DHT22;37421;51.176;17.196;2022-10-26T00:45:42;18.90;99.90
51337;DHT22;37421;51.176;17.196;2022-10-26T00:48:48;18.90;99.90
51337;DHT22;37421;51.176;17.196;2022-10-26T00:51:55;18.90;99.90
51337;DHT22;37421;51.176;17.196;2022-10-26T00:54:23;18.90;99.90
51337;DHT22;37421;51.176;17.196;2022-10-26T00:57:23;18.90;99.90
51337;DHT22;37421;51.176;17.196;2022-10-26T01:00:03;18.90;99.90
51337;DHT22;37421;51.176;17.196;2022-10-26T01:06:14;18.90;99.90
51337;DHT22;37421;51.176;17.196;2022-10-26T01:08:59;18.90;99.90
51337;DHT22;37421;51.176;17.196;2022-10-26T01:11:25;18.80;99.90
51337;DHT22;37421;51.176;17.196;2022-10-26T01:13:52;18.80;99.90
51337;DHT22;37421;51.176;17.196;2022-10-26T01:22:28;18.80;99.90
51337;DHT22;37421;51.176;17.196;2022-10-26T01:27:53;18.80;99.90
51337;DHT22;37421;51.176;17.196;2022-10-26T01:30:25;18.80;99.90
51337;DHT22;37421;51.176;17.196;2022-10-26T01:33:48;18.80;99.90
51337;DHT22;37421;51.176;17.196;2022-10-26T01:38:57;18.80;99.90
51337;DHT22;37421;51.176;17.196;2022-10-26T01:41:34;18.70;99.90
51337;DHT22;37421;51.176;17.196;2022-10-26T01:44:08;18.70;99.90
51337;DHT22;37421;51.176;17.196;2022-10-26T01:46:38;18.70;99.90
51337;DHT22;37421;51.176;17.196;2022-10-26T01:49:10;18.70;99.90
51337;DHT22;37421;51.176;17.196;2022-10-26T01:51:39;18.70;99.90
51337;DHT22;37421;51.176;17.196;2022-10-26T01:54:06;18.70;99.90
51337;DHT22;37421;51.176;17.196;2022-10-26T01:56:35;18.70;99.90
51337;DHT22;37421;51.176;17.196;2022-10-26T01:59:21;18.70;99.90
51337;DHT22;37421;51.176;17.196;2022-10-26T02:04:59;18.70;99.90
51337;DHT22;37421;51.176;17.196;2022-10-26T02:07:35;18.60;99.90
51337;DHT22;37421;51.176;17.196;2022-10-26T02:10:24;18.60;99.90
51337;DHT22;37421;51.176;17.196;2022-10-26T02:13:28;18.60;99.90
51337;DHT22;37421;51.176;17.196;2022-10-26T02:16:01;18.60;99.90
51337;DHT22;37421;51.176;17.196;2022-10-26T02:18:35;18.60;99.90
51337;DHT22;37421;51.176;17.196;2022-10-26T02:21:12;18.60;99.90
51337;DHT22;37421;51.176;17.196;2022-10-26T02:23:43;18.60;99.90
51337;DHT22;37421;51.176;17.196;2022-10-26T02:26:18;18.60;99.90
51337;DHT22;37421;51.176;17.196;2022-10-26T02:28:50;18.60;99.90
51337;DHT22;37421;51.176;17.196;2022-10-26T02:31:19;18.60;99.90
51337;DHT22;37421;51.176;17.196;2022-10-26T02:33:49;18.50;99.90
51337;DHT22;37421;51.176;17.196;2022-10-26T02:36:23;18.50;99.90
51337;DHT22;37421;51.176;17.196;2022-10-26T02:38:56;18.50;99.90
51337;DHT22;37421;51.176;17.196;2022-10-26T02:41:25;18.50;99.90
51337;DHT22;37421;51.176;17.196;2022-10-26T02:44:14;18.50;99.90
51337;DHT22;37421;51.176;17.196;2022-10-26T02:46:42;18.50;99.90
51337;DHT22;37421;51.176;17.196;2022-10-26T02:55:26;18.40;99.90
51337;DHT22;37421;51.176;17.196;2022-10-26T02:58:29;18.50;99.90
51337;DHT22;37421;51.176;17.196;2022-10-26T03:00:56;18.50;99.90
51337;DHT22;37421;51.176;17.196;2022-10-26T03:03:27;18.60;99.90
51337;DHT22;37421;51.176;17.196;2022-10-26T03:06:09;18.50;99.90
51337;DHT22;37421;51.176;17.196;2022-10-26T03:08:35;18.50;99.90
51337;DHT22;37421;51.176;17.196;2022-10-26T03:11:01;18.50;99.90
51337;DHT22;37421;51.176;17.196;2022-10-26T03:13:27;18.50;99.90
51337;DHT22;37421;51.176;17.196;2022-10-26T03:15:56;18.50;99.90
51337;DHT22;37421;51.176;17.196;2022-10-26T03:18:31;18.40;99.90
51337;DHT22;37421;51.176;17.196;2022-10-26T03:20:57;18.50;99.90
51337;DHT22;37421;51.176;17.196;2022-10-26T03:23:22;18.40;99.90
51337;DHT22;37421;51.176;17.196;2022-10-26T03:25:48;18.40;99.90
51337;DHT22;37421;51.176;17.196;2022-10-26T03:28:15;18.40;99.90
51337;DHT22;37421;51.176;17.196;2022-10-26T03:30:41;18.40;99.90
51337;DHT22;37421;51.176;17.196;2022-10-26T03:33:07;18.40;99.90
51337;DHT22;37421;51.176;17.196;2022-10-26T03:35:33;18.40;99.90
51337;DHT22;37421;51.176;17.196;2022-10-26T03:37:59;18.40;99.90
51337;DHT22;37421;51.176;17.196;2022-10-26T03:40:25;18.30;99.90
51337;DHT22;37421;51.176;17.196;2022-10-26T03:42:50;18.30;99.90
51337;DHT22;37421;51.176;17.196;2022-10-26T03:45:16;18.30;99.90
51337;DHT22;37421;51.176;17.196;2022-10-26T03:47:47;18.30;99.90
51337;DHT22;37421;51.176;17.196;2022-10-26T03:50:15;18.30;99.90
51337;DHT22;37421;51.176;17.196;2022-10-26T03:52:41;18.30;99.90
51337;DHT22;37421;51.176;17.196;2022-10-26T03:55:07;18.30;99.90
51337;DHT22;37421;51.176;17.196;2022-10-26T03:57:34;18.30;99.90
51337;DHT22;37421;51.176;17.196;2022-10-26T04:00:00;18.20;99.90
51337;DHT22;37421;51.176;17.196;2022-10-26T04:02:29;18.30;99.90
51337;DHT22;37421;51.176;17.196;2022-10-26T04:04:55;18.20;99.90
51337;DHT22;37421;51.176;17.196;2022-10-26T04:07:20;18.20;99.90
51337;DHT22;37421;51.176;17.196;2022-10-26T04:09:46;18.20;99.90
51337;DHT22;37421;51.176;17.196;2022-10-26T04:12:12;18.30;99.90
51337;DHT22;37421;51.176;17.196;2022-10-26T04:14:38;18.30;99.90
51337;DHT22;37421;51.176;17.196;2022-10-26T04:17:04;18.30;99.90
51337;DHT22;37421;51.176;17.196;2022-10-26T04:19:30;18.20;99.90
51337;DHT22;37421;51.176;17.196;2022-10-26T04:21:56;18.20;99.90
51337;DHT22;37421;51.176;17.196;2022-10-26T04:24:22;18.20;99.90
51337;DHT22;37421;51.176;17.196;2022-10-26T04:26:48;18.20;99.90
51337;DHT22;37421;51.176;17.196;2022-10-26T04:29:13;18.30;99.90
51337;DHT22;37421;51.176;17.196;2022-10-26T04:31:39;18.40;99.90
51337;DHT22;37421;51.176;17.196;2022-10-26T04:34:06;18.50;99.90
51337;DHT22;37421;51.176;17.196;2022-10-26T04:36:32;18.60;99.90
51337;DHT22;37421;51.176;17.196;2022-10-26T04:38:59;18.70;99.90
51337;DHT22;37421;51.176;17.196;2022-10-26T04:41:25;18.80;99.90
51337;DHT22;37421;51.176;17.196;2022-10-26T04:43:51;18.90;99.90
51337;DHT22;37421;51.176;17.196;2022-10-26T04:46:17;19.00;99.90
51337;DHT22;37421;51.176;17.196;2022-10-26T04:48:43;19.00;99.90
51337;DHT22;37421;51.176;17.196;2022-10-26T04:51:09;19.00;99.90
51337;DHT22;37421;51.176;17.196;2022-10-26T04:53:35;19.00;99.90
51337;DHT22;37421;51.176;17.196;2022-10-26T04:56:01;19.00;99.90
51337;DHT22;37421;51.176;17.196;2022-10-26T04:58:27;19.10;99.90
51337;DHT22;37421;51.176;17.196;2022-10-26T05:00:54;19.10;99.90
51337;DHT22;37421;51.176;17.196;2022-10-26T05:03:20;19.10;99.90
51337;DHT22;37421;51.176;17.196;2022-10-26T05:05:46;19.10;99.90
51337;DHT22;37421;51.176;17.196;2022-10-26T05:08:15;19.10;99.90
51337;DHT22;37421;51.176;17.196;2022-10-26T05:10:41;19.30;99.90
51337;DHT22;37421;51.176;17.196;2022-10-26T05:13:08;19.30;99.90
51337;DHT22;37421;51.176;17.196;2022-10-26T05:15:35;19.30;99.90
51337;DHT22;37421;51.176;17.196;2022-10-26T05:18:03;19.40;99.90
51337;DHT22;37421;51.176;17.196;2022-10-26T05:20:32;19.40;99.90
51337;DHT22;37421;51.176;17.196;2022-10-26T05:23:01;19.40;99.90
51337;DHT22;37421;51.176;17.196;2022-10-26T05:25:28;19.40;99.90
51337;DHT22;37421;51.176;17.196;2022-10-26T05:27:59;19.40;99.90
51337;DHT22;37421;51.176;17.196;2022-10-26T05:30:26;19.40;99.90
51337;DHT22;37421;51.176;17.196;2022-10-26T05:32:56;19.40;99.90
51337;DHT22;37421;51.176;17.196;2022-10-26T05:35:23;19.40;99.90
51337;DHT22;37421;51.176;17.196;2022-10-26T05:37:49;19.40;99.90
51337;DHT22;37421;51.176;17.196;2022-10-26T05:40:15;19.40;99.90
51337;DHT22;37421;51.176;17.196;2022-10-26T05:42:42;19.40;99.90
51337;DHT22;37421;51.176;17.196;2022-10-26T05:45:09;19.40;99.90
51337;DHT22;37421;51.176;17.196;2022-10-26T05:47:42;19.40;99.90
51337;DHT22;37421;51.176;17.196;2022-10-26T05:50:10;19.40;99.90
51337;DHT22;37421;51.176;17.196;2022-10-26T05:52:44;19.50;99.90
51337;DHT22;37421;51.176;17.196;2022-10-26T05:55:15;19.50;99.90
51337;DHT22;37421;51.176;17.196;2022-10-26T05:57:41;19.60;99.90
51337;DHT22;37421;51.176;17.196;2022-10-26T06:00:13;19.60;99.90
51337;DHT22;37421;51.176;17.196;2022-10-26T06:03:07;19.70;99.90
51337;DHT22;37421;51.176;17.196;2022-10-26T06:05:43;19.70;99.90
51337;DHT22;37421;51.176;17.196;2022-10-26T06:08:11;19.70;99.90
51337;DHT22;37421;51.176;17.196;2022-10-26T06:10:37;19.80;99.90
51337;DHT22;37421;51.176;17.196;2022-10-26T06:13:06;19.80;99.90
51337;DHT22;37421;51.176;17.196;2022-10-26T06:15:41;19.80;99.90
51337;DHT22;37421;51.176;17.196;2022-10-26T06:18:38;19.90;99.90
51337;DHT22;37421;51.176;17.196;2022-10-26T06:29:20;19.80;99.90
51337;DHT22;37421;51.176;17.196;2022-10-26T06:31:47;19.80;99.90
51337;DHT22;37421;51.176;17.196;2022-10-26T06:34:26;19.80;99.90
51337;DHT22;37421;51.176;17.196;2022-10-26T06:36:55;19.80;99.90
51337;DHT22;37421;51.176;17.196;2022-10-26T06:39:30;19.80;99.90
51337;DHT22;37421;51.176;17.196;2022-10-26T06:42:00;19.80;99.90
51337;DHT22;37421;51.176;17.196;2022-10-26T06:44:26;19.90;99.90
51337;DHT22;37421;51.176;17.196;2022-10-26T06:47:13;19.90;99.90
51337;DHT22;37421;51.176;17.196;2022-10-26T06:52:37;19.90;99.90
51337;DHT22;37421;51.176;17.196;2022-10-26T06:55:06;20.00;99.90
51337;DHT22;37421;51.176;17.196;2022-10-26T06:57:39;19.90;99.90
51337;DHT22;37421;51.176;17.196;2022-10-26T07:00:20;19.90;99.90
51337;DHT22;37421;51.176;17.196;2022-10-26T07:02:46;19.90;99.90
51337;DHT22;37421;51.176;17.196;2022-10-26T07:05:15;20.00;99.90
51337;DHT22;37421;51.176;17.196;2022-10-26T07:07:43;19.90;99.90
51337;DHT22;37421;51.176;17.196;2022-10-26T07:10:10;19.90;99.90
51337;DHT22;37421;51.176;17.196;2022-10-26T07:12:43;19.90;99.90
51337;DHT22;37421;51.176;17.196;2022-10-26T07:15:12;19.90;99.90
51337;DHT22;37421;51.176;17.196;2022-10-26T07:17:48;19.90;99.90
51337;DHT22;37421;51.176;17.196;2022-10-26T07:20:20;19.90;99.90
51337;DHT22;37421;51.176;17.196;2022-10-26T07:22:55;19.90;99.90
51337;DHT22;37421;51.176;17.196;2022-10-26T07:25:22;19.90;99.90
51337;DHT22;37421;51.176;17.196;2022-10-26T07:27:51;19.90;99.90
51337;DHT22;37421;51.176;17.196;2022-10-26T07:30:17;19.90;99.90
51337;DHT22;37421;51.176;17.196;2022-10-26T07:32:43;20.00;99.90
51337;DHT22;37421;51.176;17.196;2022-10-26T07:35:09;19.90;99.90
51337;DHT22;37421;51.176;17.196;2022-10-26T07:37:35;20.00;99.90
51337;DHT22;37421;51.176;17.196;2022-10-26T07:40:02;20.00;99.90
51337;DHT22;37421;51.176;17.196;2022-10-26T07:42:30;20.00;99.90
51337;DHT22;37421;51.176;17.196;2022-10-26T07:44:56;20.00;99.90
51337;DHT22;37421;51.176;17.196;2022-10-26T07:47:22;20.00;99.90
51337;DHT22;37421;51.176;17.196;2022-10-26T07:49:48;20.00;99.90
51337;DHT22;37421;51.176;17.196;2022-10-26T07:52:14;20.00;99.90
51337;DHT22;37421;51.176;17.196;2022-10-26T07:54:45;20.00;99.90
51337;DHT22;37421;51.176;17.196;2022-10-26T07:57:24;20.10;99.90
51337;DHT22;37421;51.176;17.196;2022-10-26T07:59:53;20.10;99.90
51337;DHT22;37421;51.176;17.196;2022-10-26T08:02:28;20.20;99.90
51337;DHT22;37421;51.176;17.196;2022-10-26T08:04:54;20.10;99.90
51337;DHT22;37421;51.176;17.196;2022-10-26T08:07:20;20.20;99.90
51337;DHT22;37421;51.176;17.196;2022-10-26T08:09:46;20.20;99.90
51337;DHT22;37421;51.176;17.196;2022-10-26T08:12:17;20.10;99.90
51337;DHT22;37421;51.176;17.196;2022-10-26T08:14:43;20.20;99.90
51337;DHT22;37421;51.176;17.196;2022-10-26T08:17:09;20.20;99.90
51337;DHT22;37421;51.176;17.196;2022-10-26T08:19:35;20.20;99.90
51337;DHT22;37421;51.176;17.196;2022-10-26T08:22:01;20.30;99.90
51337;DHT22;37421;51.176;17.196;2022-10-26T08:24:28;20.30;99.90
51337;DHT22;37421;51.176;17.196;2022-10-26T08:26:54;20.50;99.90
51337;DHT22;37421;51.176;17.196;2022-10-26T08:29:20;20.40;99.90
51337;DHT22;37421;51.176;17.196;2022-10-26T08:31:49;20.30;99.90
51337;DHT22;37421;51.176;17.196;2022-10-26T08:34:15;20.30;99.90
51337;DHT22;37421;51.176;17.196;2022-10-26T08:36:40;20.30;99.90
51337;DHT22;37421;51.176;17.196;2022-10-26T08:39:06;20.30;99.90
51337;DHT22;37421;51.176;17.196;2022-10-26T08:41:34;20.20;99.90
51337;DHT22;37421;51.176;17.196;2022-10-26T08:44:14;20.30;99.90
51337;DHT22;37421;51.176;17.196;2022-10-26T08:46:45;20.30;99.90
51337;DHT22;37421;51.176;17.196;2022-10-26T08:49:21;20.40;99.90
51337;DHT22;37421;51.176;17.196;2022-10-26T08:51:51;20.30;99.90
51337;DHT22;37421;51.176;17.196;2022-10-26T08:54:32;20.40;99.90
51337;DHT22;37421;51.176;17.196;2022-10-26T08:57:03;20.50;99.90
51337;DHT22;37421;51.176;17.196;2022-10-26T08:59:55;20.50;99.90
51337;DHT22;37421;51.176;17.196;2022-10-26T09:02:22;20.60;99.90
51337;DHT22;37421;51.176;17.196;2022-10-26T09:04:50;20.60;99.90
51337;DHT22;37421;51.176;17.196;2022-10-26T09:13:03;20.60;99.90
51337;DHT22;37421;51.176;17.196;2022-10-26T09:24:13;20.60;99.90
51337;DHT22;37421;51.176;17.196;2022-10-26T09:26:53;20.60;99.90
51337;DHT22;37421;51.176;17.196;2022-10-26T09:29:31;20.60;99.90
51337;DHT22;37421;51.176;17.196;2022-10-26T09:32:00;20.60;99.90
51337;DHT22;37421;51.176;17.196;2022-10-26T09:34:40;20.60;99.90
51337;DHT22;37421;51.176;17.196;2022-10-26T09:37:36;20.60;99.90
51337;DHT22;37421;51.176;17.196;2022-10-26T09:40:16;20.60;99.90
51337;DHT22;37421;51.176;17.196;2022-10-26T09:45:21;20.70;99.90
51337;DHT22;37421;51.176;17.196;2022-10-26T09:47:53;20.70;99.90
51337;DHT22;37421;51.176;17.196;2022-10-26T09:50:31;20.80;99.90
51337;DHT22;37421;51.176;17.196;2022-10-26T09:52:58;20.80;99.90
51337;DHT22;37421;51.176;17.196;2022-10-26T09:55:24;20.80;99.90
51337;DHT22;37421;51.176;17.196;2022-10-26T09:57:54;20.80;99.90
51337;DHT22;37421;51.176;17.196;2022-10-26T10:00:22;20.80;99.90
51337;DHT22;37421;51.176;17.196;2022-10-26T10:02:56;20.80;99.90
51337;DHT22;37421;51.176;17.196;2022-10-26T10:05:26;20.80;99.90
51337;DHT22;37421;51.176;17.196;2022-10-26T10:08:22;20.80;99.90
51337;DHT22;37421;51.176;17.196;2022-10-26T10:10:59;20.80;99.90
51337;DHT22;37421;51.176;17.196;2022-10-26T10:13:29;20.80;99.90
51337;DHT22;37421;51.176;17.196;2022-10-26T10:16:06;20.90;99.90
51337;DHT22;37421;51.176;17.196;2022-10-26T10:18:35;20.90;99.90
51337;DHT22;37421;51.176;17.196;2022-10-26T10:21:01;20.80;99.90
51337;DHT22;37421;51.176;17.196;2022-10-26T10:23:33;20.90;99.90
51337;DHT22;37421;51.176;17.196;2022-10-26T10:26:10;20.90;99.90
51337;DHT22;37421;51.176;17.196;2022-10-26T10:28:37;20.90;99.90
51337;DHT22;37421;51.176;17.196;2022-10-26T10:31:31;20.90;99.90
51337;DHT22;37421;51.176;17.196;2022-10-26T10:33:57;20.90;99.90
51337;DHT22;37421;51.176;17.196;2022-10-26T10:36:27;20.90;99.90
51337;DHT22;37421;51.176;17.196;2022-10-26T10:38:56;20.90;99.90
51337;DHT22;37421;51.176;17.196;2022-10-26T10:41:34;21.00;99.90
51337;DHT22;37421;51.176;17.196;2022-10-26T10:44:24;21.00;99.90
51337;DHT22;37421;51.176;17.196;2022-10-26T10:47:04;20.90;99.90
51337;DHT22;37421;51.176;17.196;2022-10-26T10:49:49;21.00;99.90
51337;DHT22;37421;51.176;17.196;2022-10-26T10:52:45;21.00;99.90
51337;DHT22;37421;51.176;17.196;2022-10-26T10:55:17;21.00;99.90
51337;DHT22;37421;51.176;17.196;2022-10-26T10:58:17;21.00;99.90
51337;DHT22;37421;51.176;17.196;2022-10-26T11:00:47;21.00;99.90
51337;DHT22;37421;51.176;17.196;2022-10-26T11:06:25;21.00;99.90
51337;DHT22;37421;51.176;17.196;2022-10-26T11:09:12;21.00;99.90
51337;DHT22;37421;51.176;17.196;2022-10-26T11:11:46;21.10;99.90
51337;DHT22;37421;51.176;17.196;2022-10-26T11:14:29;21.10;99.90
51337;DHT22;37421;51.176;17.196;2022-10-26T11:17:10;21.10;99.90
51337;DHT22;37421;51.176;17.196;2022-10-26T11:20:08;21.10;99.90
51337;DHT22;37421;51.176;17.196;2022-10-26T11:23:16;21.10;99.90
51337;DHT22;37421;51.176;17.196;2022-10-26T11:25:35;21.10;99.90
51337;DHT22;37421;51.176;17.196;2022-10-26T11:30:59;21.20;99.90
51337;DHT22;37421;51.176;17.196;2022-10-26T11:33:34;21.20;99.90
51337;DHT22;37421;51.176;17.196;2022-10-26T11:36:12;21.20;99.90
51337;DHT22;37421;51.176;17.196;2022-10-26T11:38:53;21.30;99.90
51337;DHT22;37421;51.176;17.196;2022-10-26T11:41:49;21.30;99.90
51337;DHT22;37421;51.176;17.196;2022-10-26T11:47:15;21.60;99.90
51337;DHT22;37421;51.176;17.196;2022-10-26T11:52:51;21.50;99.90
51337;DHT22;37421;51.176;17.196;2022-10-26T11:55:19;21.40;99.90
51337;DHT22;37421;51.176;17.196;2022-10-26T11:57:47;21.40;99.90
51337;DHT22;37421;51.176;17.196;2022-10-26T12:00:17;21.30;99.90
51337;DHT22;37421;51.176;17.196;2022-10-26T12:02:56;21.40;99.90
51337;DHT22;37421;51.176;17.196;2022-10-26T12:06:10;21.40;99.90
51337;DHT22;37421;51.176;17.196;2022-10-26T12:08:30;21.40;99.90
51337;DHT22;37421;51.176;17.196;2022-10-26T12:11:15;21.40;99.90
51337;DHT22;37421;51.176;17.196;2022-10-26T12:14:22;21.30;99.90
51337;DHT22;37421;51.176;17.196;2022-10-26T12:22:20;21.30;99.90
51337;DHT22;37421;51.176;17.196;2022-10-26T12:25:17;21.30;99.90
51337;DHT22;37421;51.176;17.196;2022-10-26T12:32:56;21.30;99.90
51337;DHT22;37421;51.176;17.196;2022-10-26T12:35:38;21.30;99.90
51337;DHT22;37421;51.176;17.196;2022-10-26T12:41:11;21.30;99.90
51337;DHT22;37421;51.176;17.196;2022-10-26T12:43:40;21.30;99.90
51337;DHT22;37421;51.176;17.196;2022-10-26T12:48:47;21.20;99.90
51337;DHT22;37421;51.176;17.196;2022-10-26T12:59:37;21.40;99.90
51337;DHT22;37421;51.176;17.196;2022-10-26T13:02:36;21.30;99.90
51337;DHT22;37421;51.176;17.196;2022-10-26T13:08:06;21.10;99.90
51337;DHT22;37421;51.176;17.196;2022-10-26T13:10:34;21.10;99.90
51337;DHT22;37421;51.176;17.196;2022-10-26T13:13:05;21.10;99.90
51337;DHT22;37421;51.176;17.196;2022-10-26T13:15:51;21.10;99.90
51337;DHT22;37421;51.176;17.196;2022-10-26T13:18:19;21.10;99.90
51337;DHT22;37421;51.176;17.196;2022-10-26T13:24:35;21.00;99.90
51337;DHT22;37421;51.176;17.196;2022-10-26T13:29:31;20.90;99.90
51337;DHT22;37421;51.176;17.196;2022-10-26T13:31:58;20.90;99.90
51337;DHT22;37421;51.176;17.196;2022-10-26T13:34:31;20.90;99.90
51337;DHT22;37421;51.176;17.196;2022-10-26T13:39:40;20.90;99.90
51337;DHT22;37421;51.176;17.196;2022-10-26T13:42:14;20.90;99.90
51337;DHT22;37421;51.176;17.196;2022-10-26T13:45:06;20.90;99.90
51337;DHT22;37421;51.176;17.196;2022-10-26T13:47:45;21.00;99.90
51337;DHT22;37421;51.176;17.196;2022-10-26T13:50:23;21.00;99.90
51337;DHT22;37421;51.176;17.196;2022-10-26T13:52:52;21.10;99.90
51337;DHT22;37421;51.176;17.196;2022-10-26T13:55:31;21.10;99.90
51337;DHT22;37421;51.176;17.196;2022-10-26T14:03:26;21.10;99.90
51337;DHT22;37421;51.176;17.196;2022-10-26T14:05:52;21.10;99.90
51337;DHT22;37421;51.176;17.196;2022-10-26T14:08:19;21.10;99.90
51337;DHT22;37421;51.176;17.196;2022-10-26T14:10:56;21.10;99.90
51337;DHT22;37421;51.176;17.196;2022-10-26T14:13:25;21.10;99.90
51337;DHT22;37421;51.176;17.196;2022-10-26T14:15:54;21.10;99.90
51337;DHT22;37421;51.176;17.196;2022-10-26T14:18:29;21.10;99.90
51337;DHT22;37421;51.176;17.196;2022-10-26T14:21:07;21.20;99.90
51337;DHT22;37421;51.176;17.196;2022-10-26T14:23:59;21.10;99.90
51337;DHT22;37421;51.176;17.196;2022-10-26T14:26:39;21.20;99.90
51337;DHT22;37421;51.176;17.196;2022-10-26T14:29:20;21.20;99.90
51337;DHT22;37421;51.176;17.196;2022-10-26T14:31:47;21.20;99.90
51337;DHT22;37421;51.176;17.196;2022-10-26T14:34:20;21.20;99.90
51337;DHT22;37421;51.176;17.196;2022-10-26T14:39:32;21.20;99.90
51337;DHT22;37421;51.176;17.196;2022-10-26T14:42:13;21.20;99.90
51337;DHT22;37421;51.176;17.196;2022-10-26T14:44:39;21.20;99.90
51337;DHT22;37421;51.176;17.196;2022-10-26T14:47:13;21.20;99.90
51337;DHT22;37421;51.176;17.196;2022-10-26T14:49:53;21.20;99.90
51337;DHT22;37421;51.176;17.196;2022-10-26T14:52:26;21.20;99.90
51337;DHT22;37421;51.176;17.196;2022-10-26T14:55:19;21.20;99.90
51337;DHT22;37421;51.176;17.196;2022-10-26T14:57:47;21.20;99.90
51337;DHT22;37421;51.176;17.196;2022-10-26T15:00:22;21.10;99.90
51337;DHT22;37421;51.176;17.196;2022-10-26T15:02:54;21.10;99.90
51337;DHT22;37421;51.176;17.196;2022-10-26T15:07:50;21.10;99.90
51337;DHT22;37421;51.176;17.196;2022-10-26T15:13:38;21.10;99.90
51337;DHT22;37421;51.176;17.196;2022-10-26T15:16:25;21.00;99.90
51337;DHT22;37421;51.176;17.196;2022-10-26T15:18:58;21.00;99.90
51337;DHT22;37421;51.176;17.196;2022-10-26T15:21:30;21.00;99.90
51337;DHT22;37421;51.176;17.196;2022-10-26T15:23:57;21.00;99.90
51337;DHT22;37421;51.176;17.196;2022-10-26T15:26:26;21.00;99.90
51337;DHT22;37421;51.176;17.196;2022-10-26T15:28:53;21.00;99.90
51337;DHT22;37421;51.176;17.196;2022-10-26T15:36:18;20.90;99.90
51337;DHT22;37421;51.176;17.196;2022-10-26T15:38:45;20.80;99.90
51337;DHT22;37421;51.176;17.196;2022-10-26T15:43:56;20.80;99.90
51337;DHT22;37421;51.176;17.196;2022-10-26T15:46:29;20.80;99.90
51337;DHT22;37421;51.176;17.196;2022-10-26T15:48:56;20.80;99.90
51337;DHT22;37421;51.176;17.196;2022-10-26T15:51:23;20.80;99.90
51337;DHT22;37421;51.176;17.196;2022-10-26T15:53:49;20.70;99.90
51337;DHT22;37421;51.176;17.196;2022-10-26T15:56:22;20.70;99.90
51337;DHT22;37421;51.176;17.196;2022-10-26T15:58:48;20.70;99.90
51337;DHT22;37421;51.176;17.196;2022-10-26T16:01:51;20.60;99.90
51337;DHT22;37421;51.176;17.196;2022-10-26T16:04:17;20.60;99.90
51337;DHT22;37421;51.176;17.196;2022-10-26T16:06:43;20.60;99.90
51337;DHT22;37421;51.176;17.196;2022-10-26T16:09:14;20.60;99.90
51337;DHT22;37421;51.176;17.196;2022-10-26T16:11:42;20.60;99.90
51337;DHT22;37421;51.176;17.196;2022-10-26T16:14:15;20.50;99.90
51337;DHT22;37421;51.176;17.196;2022-10-26T16:16:44;20.50;99.90
51337;DHT22;37421;51.176;17.196;2022-10-26T16:19:10;20.50;99.90
51337;DHT22;37421;51.176;17.196;2022-10-26T16:21:37;20.50;99.90
51337;DHT22;37421;51.176;17.196;2022-10-26T16:24:03;20.50;99.90
51337;DHT22;37421;51.176;17.196;2022-10-26T16:26:29;20.40;99.90
51337;DHT22;37421;51.176;17.196;2022-10-26T16:28:55;20.40;99.90
51337;DHT22;37421;51.176;17.196;2022-10-26T16:31:21;20.40;99.90
51337;DHT22;37421;51.176;17.196;2022-10-26T16:33:47;20.40;99.90
51337;DHT22;37421;51.176;17.196;2022-10-26T16:36:13;20.40;99.90
51337;DHT22;37421;51.176;17.196;2022-10-26T16:38:39;20.30;99.90
51337;DHT22;37421;51.176;17.196;2022-10-26T16:41:13;20.30;99.90
51337;DHT22;37421;51.176;17.196;2022-10-26T16:43:42;20.30;99.90
51337;DHT22;37421;51.176;17.196;2022-10-26T16:46:14;20.20;99.90
51337;DHT22;37421;51.176;17.196;2022-10-26T16:48:42;20.20;99.90
51337;DHT22;37421;51.176;17.196;2022-10-26T16:51:42;20.20;99.90
51337;DHT22;37421;51.176;17.196;2022-10-26T16:54:01;20.20;99.90
51337;DHT22;37421;51.176;17.196;2022-10-26T16:56:28;20.20;99.90
51337;DHT22;37421;51.176;17.196;2022-10-26T16:58:55;20.20;99.90
51337;DHT22;37421;51.176;17.196;2022-10-26T17:01:21;20.10;99.90
51337;DHT22;37421;51.176;17.196;2022-10-26T17:03:49;20.10;99.90
51337;DHT22;37421;51.176;17.196;2022-10-26T17:06:15;20.10;99.90
51337;DHT22;37421;51.176;17.196;2022-10-26T17:08:42;20.10;99.90
51337;DHT22;37421;51.176;17.196;2022-10-26T17:11:19;20.10;99.90
51337;DHT22;37421;51.176;17.196;2022-10-26T17:13:46;20.10;99.90
51337;DHT22;37421;51.176;17.196;2022-10-26T17:16:15;20.10;99.90
51337;DHT22;37421;51.176;17.196;2022-10-26T17:18:45;20.20;99.90
51337;DHT22;37421;51.176;17.196;2022-10-26T17:21:14;20.20;99.90
51337;DHT22;37421;51.176;17.196;2022-10-26T17:23:40;20.20;99.90
51337;DHT22;37421;51.176;17.196;2022-10-26T17:26:08;20.20;99.90
51337;DHT22;37421;51.176;17.196;2022-10-26T17:28:35;20.20;99.90
51337;DHT22;37421;51.176;17.196;2022-10-26T17:31:08;20.20;99.90
51337;DHT22;37421;51.176;17.196;2022-10-26T17:33:36;20.20;99.90
51337;DHT22;37421;51.176;17.196;2022-10-26T17:36:04;20.20;99.90
51337;DHT22;37421;51.176;17.196;2022-10-26T17:38:32;20.20;99.90
51337;DHT22;37421;51.176;17.196;2022-10-26T17:41:04;20.20;99.90
51337;DHT22;37421;51.176;17.196;2022-10-26T17:43:35;20.20;99.90
51337;DHT22;37421;51.176;17.196;2022-10-26T17:46:22;20.20;99.90
51337;DHT22;37421;51.176;17.196;2022-10-26T17:48:53;20.10;99.90